createdAt,value
2023-05-21T00:02:35.775Z,2.88
2023-05-21T00:05:38.722Z,1.45
2023-05-21T00:08:41.587Z,1.08
2023-05-21T00:11:44.380Z,0.98
2023-05-21T00:14:47.318Z,2.42
2023-05-21T00:17:50.864Z,1.27
2023-05-21T00:20:54.819Z,1.08
2023-05-21T00:23:58.291Z,1.08
2023-05-21T00:27:01.089Z,2.67
2023-05-21T00:30:03.443Z,1.38
2023-05-21T00:33:06.238Z,2.38
2023-05-21T00:36:09.745Z,1.20
2023-05-21T00:39:12.337Z,1.08
2023-05-21T00:42:14.592Z,2.13
2023-05-21T00:45:17.394Z,1.20
2023-05-21T00:48:20.535Z,1.40
2023-05-21T00:51:24.080Z,1.33
2023-05-21T00:54:28.398Z,1.45
2023-05-21T00:57:30.968Z,0.93
2023-05-21T01:00:33.513Z,1.17
2023-05-21T01:03:36.472Z,1.25
2023-05-21T01:06:39.526Z,1.35
2023-05-21T01:09:42.289Z,1.08
2023-05-21T01:12:44.791Z,1.23
2023-05-21T01:15:47.693Z,2.63
2023-05-21T01:18:50.901Z,2.08
2023-05-21T01:21:54.032Z,2.40
2023-05-21T01:24:56.503Z,1.08
2023-05-21T01:27:59.600Z,2.05
2023-05-21T01:31:02.782Z,1.20
2023-05-21T01:34:04.887Z,1.05
2023-05-21T01:37:07.778Z,1.75
2023-05-21T01:40:10.901Z,1.60
2023-05-21T01:43:13.699Z,1.23
2023-05-21T01:46:16.115Z,1.08
2023-05-21T01:49:18.516Z,2.25
2023-05-21T01:52:21.692Z,1.38
2023-05-21T01:55:25.066Z,1.50
2023-05-21T01:58:27.764Z,2.67
2023-05-21T02:01:30.582Z,1.52
2023-05-21T02:04:32.983Z,1.50
2023-05-21T02:07:35.300Z,1.50
2023-05-21T02:10:38.099Z,2.50
2023-05-21T02:13:40.955Z,1.65
2023-05-21T02:16:43.788Z,1.30
2023-05-21T02:19:46.364Z,1.75
2023-05-21T02:22:49.325Z,1.70
2023-05-21T02:25:51.992Z,1.80
2023-05-21T02:28:55.046Z,1.23
2023-05-21T02:31:57.728Z,1.67
2023-05-21T02:35:01.176Z,1.85
2023-05-21T02:38:04.254Z,2.38
2023-05-21T02:41:07.096Z,2.28
2023-05-21T02:44:09.701Z,1.70
2023-05-21T02:47:12.217Z,2.10
2023-05-21T02:50:14.796Z,1.70
2023-05-21T02:53:22.855Z,2.05
2023-05-21T02:56:25.922Z,1.05
2023-05-21T02:59:29.085Z,1.63
2023-05-21T03:02:31.487Z,2.63
2023-05-21T03:05:34.451Z,1.63
2023-05-21T03:08:37.746Z,2.10
2023-05-21T03:11:40.140Z,1.65
2023-05-21T03:14:43.055Z,1.98
2023-05-21T03:17:45.378Z,1.95
2023-05-21T03:20:48.245Z,1.85
2023-05-21T03:23:50.565Z,1.88
2023-05-21T03:26:53.243Z,3.65
2023-05-21T03:29:56.178Z,3.17
2023-05-21T03:32:59.917Z,1.80
2023-05-21T03:36:03.139Z,2.03
2023-05-21T03:39:10.243Z,2.72
2023-05-21T03:42:14.581Z,2.00
2023-05-21T03:45:23.772Z,1.90
2023-05-21T03:48:57.901Z,1.67
2023-05-21T03:52:02.884Z,1.73
2023-05-21T03:55:05.753Z,2.53
2023-05-21T03:58:09.487Z,2.10
2023-05-21T04:01:12.143Z,1.73
2023-05-21T04:04:14.709Z,2.08
2023-05-21T04:07:17.344Z,2.10
2023-05-21T04:10:20.145Z,2.95
2023-05-21T04:13:23.953Z,2.15
2023-05-21T04:16:27.467Z,1.73
2023-05-21T04:19:30.871Z,2.55
2023-05-21T04:22:33.800Z,2.95
2023-05-21T04:25:37.194Z,5.25
2023-05-21T04:28:41.908Z,2.58
2023-05-21T04:31:45.391Z,1.80
2023-05-21T04:34:49.289Z,1.67
2023-05-21T04:37:52.067Z,2.53
2023-05-21T04:40:55.496Z,1.48
2023-05-21T04:43:58.116Z,1.75
2023-05-21T04:47:03.968Z,1.05
2023-05-21T04:50:06.624Z,2.55
2023-05-21T04:53:09.797Z,1.23
2023-05-21T04:56:12.361Z,2.42
2023-05-21T04:59:15.149Z,1.95
2023-05-21T05:02:18.620Z,1.80
2023-05-21T05:05:20.952Z,1.35
2023-05-21T05:08:23.695Z,3.00
2023-05-21T05:11:26.610Z,1.33
2023-05-21T05:14:29.532Z,1.50
2023-05-21T05:17:32.023Z,1.60
2023-05-21T05:20:35.515Z,2.10
2023-05-21T05:23:37.883Z,1.77
2023-05-21T05:26:43.599Z,1.92
2023-05-21T05:29:46.758Z,2.65
2023-05-21T05:32:50.774Z,1.52
2023-05-21T05:35:54.688Z,2.13
2023-05-21T05:38:57.334Z,1.77
2023-05-21T05:41:59.724Z,2.13
2023-05-21T05:45:02.859Z,4.88
2023-05-21T05:48:05.645Z,1.63
2023-05-21T05:51:07.968Z,2.00
2023-05-21T05:54:11.573Z,1.60
2023-05-21T05:57:15.192Z,2.25
2023-05-21T06:00:21.105Z,1.65
2023-05-21T06:03:25.472Z,1.50
2023-05-21T06:06:28.943Z,1.50
2023-05-21T06:09:31.734Z,1.83
2023-05-21T06:12:35.747Z,2.47
2023-05-21T06:15:39.253Z,1.70
2023-05-21T06:18:41.817Z,3.15
2023-05-21T06:21:44.666Z,1.83
2023-05-21T06:24:48.051Z,2.08
2023-05-21T06:27:51.760Z,1.48
2023-05-21T06:30:59.781Z,2.60
2023-05-21T06:34:03.047Z,1.40
2023-05-21T06:37:06.071Z,1.50
2023-05-21T06:40:09.341Z,2.70
2023-05-21T06:43:13.540Z,2.22
2023-05-21T06:46:40.326Z,1.65
2023-05-21T06:49:44.351Z,3.58
2023-05-21T06:52:47.254Z,2.47
2023-05-21T06:55:50.420Z,1.77
2023-05-21T06:59:03.417Z,2.70
2023-05-21T07:02:07.687Z,33.15
2023-05-21T07:05:10.308Z,98.65
2023-05-21T07:08:13.017Z,89.60
2023-05-21T07:11:20.740Z,73.15
2023-05-21T07:14:23.817Z,64.30
2023-05-21T07:17:26.378Z,52.28
2023-05-21T07:20:29.725Z,44.67
2023-05-21T07:23:36.844Z,32.55
2023-05-21T07:26:40.067Z,31.50
2023-05-21T07:29:43.034Z,27.48
2023-05-21T07:32:45.944Z,22.92
2023-05-21T07:35:48.466Z,21.45
2023-05-21T07:38:51.014Z,18.20
2023-05-21T07:41:53.431Z,13.40
2023-05-21T07:44:56.701Z,13.07
2023-05-21T07:48:01.436Z,9.63
2023-05-21T07:51:06.834Z,13.10
2023-05-21T07:54:10.074Z,12.50
2023-05-21T07:57:12.846Z,9.88
2023-05-21T08:00:34.940Z,10.40
2023-05-21T08:03:38.164Z,8.70
2023-05-21T08:06:40.674Z,9.05
2023-05-21T08:09:42.892Z,9.52
2023-05-21T08:12:46.174Z,10.57
2023-05-21T08:15:52.061Z,7.40
2023-05-21T08:18:57.220Z,6.55
2023-05-21T08:22:00.018Z,8.45
2023-05-21T08:25:03.118Z,10.15
2023-05-21T08:28:10.166Z,7.43
2023-05-21T08:31:12.616Z,8.45
2023-05-21T08:34:15.460Z,8.43
2023-05-21T08:37:25.271Z,8.35
2023-05-21T08:40:47.401Z,7.28
2023-05-21T08:43:50.605Z,7.93
2023-05-21T08:46:54.090Z,9.00
2023-05-21T08:49:56.869Z,8.07
2023-05-21T08:52:59.140Z,7.25
2023-05-21T08:56:01.856Z,7.88
2023-05-21T08:59:15.129Z,10.93
2023-05-21T09:02:17.982Z,9.75
2023-05-21T09:05:21.216Z,6.88
2023-05-21T09:08:24.677Z,6.80
2023-05-21T09:11:37.342Z,8.05
2023-05-21T09:14:39.884Z,8.00
2023-05-21T09:17:52.052Z,7.75
2023-05-21T09:21:26.835Z,8.38
2023-05-21T09:24:36.092Z,8.38
2023-05-21T09:27:39.615Z,10.07
2023-05-21T09:30:42.517Z,11.88
2023-05-21T09:33:46.012Z,7.95
2023-05-21T09:36:50.905Z,8.05
2023-05-21T09:39:53.406Z,10.70
2023-05-21T09:42:55.788Z,12.38
2023-05-21T09:46:00.448Z,10.32
2023-05-21T09:49:07.947Z,10.00
2023-05-21T09:52:11.053Z,8.63
2023-05-21T09:55:14.488Z,7.82
2023-05-21T09:58:18.383Z,8.07
2023-05-21T10:01:21.493Z,7.97
2023-05-21T10:04:24.774Z,6.35
2023-05-21T10:07:27.916Z,7.68
2023-05-21T10:10:31.148Z,5.78
2023-05-21T10:13:34.763Z,7.22
2023-05-21T10:16:37.641Z,5.95
2023-05-21T10:19:40.654Z,5.97
2023-05-21T10:22:44.159Z,5.70
2023-05-21T10:25:46.796Z,6.25
2023-05-21T10:28:49.832Z,4.75
2023-05-21T10:31:53.071Z,4.55
2023-05-21T10:34:56.214Z,5.50
2023-05-21T10:38:00.150Z,4.35
2023-05-21T10:41:03.612Z,4.50
2023-05-21T10:44:06.336Z,4.95
2023-05-21T10:47:08.727Z,6.13
2023-05-21T10:50:11.576Z,5.32
2023-05-21T10:53:14.486Z,4.22
2023-05-21T10:56:17.515Z,4.32
2023-05-21T10:59:19.813Z,8.00
2023-05-21T11:02:22.492Z,9.02
2023-05-21T11:05:25.510Z,9.57
2023-05-21T11:08:28.560Z,12.63
2023-05-21T11:11:31.562Z,9.95
2023-05-21T11:14:34.120Z,9.18
2023-05-21T11:17:36.957Z,11.20
2023-05-21T11:20:39.959Z,11.32
2023-05-21T11:23:42.356Z,11.88
2023-05-21T11:26:45.472Z,11.65
2023-05-21T11:29:48.534Z,9.38
2023-05-21T11:32:51.298Z,10.70
2023-05-21T11:35:54.426Z,11.98
2023-05-21T11:38:57.123Z,11.13
2023-05-21T11:42:00.932Z,11.00
2023-05-21T11:45:04.986Z,12.13
2023-05-21T11:48:08.065Z,9.10
2023-05-21T11:51:11.193Z,12.60
2023-05-21T11:54:14.493Z,12.27
2023-05-21T11:57:17.552Z,11.95
2023-05-21T12:00:21.307Z,12.05
2023-05-21T12:03:24.648Z,8.95
2023-05-21T12:06:27.069Z,10.88
2023-05-21T12:09:29.883Z,11.75
2023-05-21T12:12:45.746Z,9.10
2023-05-21T12:15:55.090Z,9.05
2023-05-21T12:18:58.237Z,8.88
2023-05-21T12:22:01.946Z,9.75
2023-05-21T12:25:05.841Z,9.32
2023-05-21T12:28:09.628Z,10.38
2023-05-21T12:31:12.507Z,8.60
2023-05-21T12:34:15.672Z,10.70
2023-05-21T12:37:18.047Z,9.63
2023-05-21T12:40:20.804Z,8.00
2023-05-21T12:43:23.885Z,10.35
2023-05-21T12:46:26.912Z,9.95
2023-05-21T12:49:29.629Z,9.95
2023-05-21T12:52:32.727Z,8.27
2023-05-21T12:55:36.123Z,8.73
2023-05-21T12:58:39.444Z,9.45
2023-05-21T13:01:42.385Z,9.05
2023-05-21T13:04:46.475Z,8.68
2023-05-21T13:07:49.687Z,9.80
2023-05-21T13:10:52.357Z,8.40
2023-05-21T13:13:55.355Z,9.60
2023-05-21T13:16:58.161Z,8.55
2023-05-21T13:20:01.073Z,9.13
2023-05-21T13:23:05.666Z,9.73
2023-05-21T13:26:09.356Z,11.73
2023-05-21T13:29:12.293Z,9.23
2023-05-21T13:32:15.093Z,9.63
2023-05-21T13:35:17.956Z,9.77
2023-05-21T13:38:20.814Z,8.70
2023-05-21T13:41:23.813Z,12.65
2023-05-21T13:44:27.031Z,8.57
2023-05-21T13:47:29.387Z,8.73
2023-05-21T13:50:32.723Z,9.07
2023-05-21T13:53:35.862Z,9.48
2023-05-21T13:56:38.615Z,10.05
2023-05-21T13:59:41.390Z,10.32
2023-05-21T14:02:44.774Z,7.47
2023-05-21T14:05:49.040Z,7.15
2023-05-21T14:08:52.599Z,6.75
2023-05-21T14:11:56.496Z,6.90
2023-05-21T14:15:00.404Z,6.60
2023-05-21T14:18:03.572Z,7.85
2023-05-21T14:21:06.257Z,9.63
2023-05-21T14:24:09.008Z,8.65
2023-05-21T14:27:13.877Z,10.02
2023-05-21T14:30:17.052Z,7.85
2023-05-21T14:33:19.866Z,8.80
2023-05-21T14:36:22.372Z,9.10
2023-05-21T14:39:25.876Z,8.32
2023-05-21T14:42:28.981Z,8.65
2023-05-21T14:45:31.846Z,8.23
2023-05-21T14:48:34.586Z,9.38
2023-05-21T14:51:37.996Z,8.55
2023-05-21T14:54:41.433Z,7.25
2023-05-21T14:57:44.986Z,8.93
2023-05-21T15:00:47.261Z,9.40
2023-05-21T15:03:49.766Z,8.90
2023-05-21T15:06:53.214Z,8.18
2023-05-21T15:09:56.347Z,9.60
2023-05-21T15:12:58.923Z,7.78
2023-05-21T15:16:02.269Z,9.00
2023-05-21T15:19:04.969Z,9.20
2023-05-21T15:22:07.879Z,9.55
2023-05-21T15:25:10.875Z,7.70
2023-05-21T15:28:13.898Z,9.57
2023-05-21T15:31:16.418Z,9.00
2023-05-21T15:34:18.729Z,9.25
2023-05-21T15:37:21.085Z,9.60
2023-05-21T15:40:26.100Z,10.02
2023-05-21T15:43:30.072Z,10.43
2023-05-21T15:46:33.296Z,9.90
2023-05-21T15:49:36.691Z,10.77
2023-05-21T15:52:39.855Z,10.10
2023-05-21T15:55:42.665Z,9.85
2023-05-21T15:58:46.226Z,10.77
2023-05-21T16:01:49.391Z,9.70
2023-05-21T16:04:52.885Z,9.65
2023-05-21T16:07:56.036Z,9.45
2023-05-21T16:10:59.090Z,10.10
2023-05-21T16:14:01.274Z,8.63
2023-05-21T16:17:03.990Z,10.60
2023-05-21T16:20:07.496Z,10.18
2023-05-21T16:23:10.197Z,10.07
2023-05-21T16:26:12.696Z,15.90
2023-05-21T16:29:15.460Z,21.38
2023-05-21T16:32:18.230Z,17.15
2023-05-21T16:35:21.284Z,14.68
2023-05-21T16:38:24.703Z,13.02
2023-05-21T16:41:27.296Z,13.65
2023-05-21T16:44:30.003Z,10.85
2023-05-21T16:47:32.844Z,11.18
2023-05-21T16:50:36.054Z,9.98
2023-05-21T16:53:39.622Z,10.57
2023-05-21T16:56:42.003Z,10.02
2023-05-21T16:59:44.790Z,9.07
2023-05-21T17:02:47.842Z,10.93
2023-05-21T17:05:50.663Z,9.13
2023-05-21T17:08:54.741Z,10.80
2023-05-21T17:11:58.128Z,10.32
2023-05-21T17:15:01.628Z,10.63
2023-05-21T17:18:04.307Z,10.57
2023-05-21T17:21:07.858Z,9.60
2023-05-21T17:24:11.488Z,9.73
2023-05-21T17:27:14.667Z,9.45
2023-05-21T17:30:18.062Z,8.98
2023-05-21T17:33:21.614Z,9.68
2023-05-21T17:36:24.622Z,9.43
2023-05-21T17:39:27.118Z,8.60
2023-05-21T17:42:30.243Z,10.00
2023-05-21T17:45:33.460Z,9.90
2023-05-21T17:48:36.634Z,9.15
2023-05-21T17:51:39.490Z,10.77
2023-05-21T17:54:43.184Z,11.63
2023-05-21T17:57:46.689Z,10.55
2023-05-21T18:00:50.256Z,9.02
2023-05-21T18:03:52.865Z,11.73
2023-05-21T18:06:55.735Z,11.00
2023-05-21T18:09:58.182Z,12.00
2023-05-21T18:13:01.075Z,11.85
2023-05-21T18:16:04.032Z,10.38
2023-05-21T18:19:06.925Z,9.63
2023-05-21T18:22:10.102Z,11.73
2023-05-21T18:25:12.869Z,8.90
2023-05-21T18:28:15.691Z,20.40
2023-05-21T18:31:18.170Z,12.32
2023-05-21T18:34:21.000Z,11.60
2023-05-21T18:37:23.759Z,12.10
2023-05-21T18:40:29.064Z,12.95
2023-05-21T18:43:33.576Z,12.48
2023-05-21T18:46:37.081Z,10.32
2023-05-21T18:49:41.166Z,10.82
2023-05-21T18:52:43.697Z,10.57
2023-05-21T18:55:46.867Z,10.75
2023-05-21T18:58:49.697Z,9.93
2023-05-21T19:01:52.578Z,10.25
2023-05-21T19:04:55.601Z,10.50
2023-05-21T19:07:59.478Z,9.50
2023-05-21T19:11:02.539Z,9.93
2023-05-21T19:14:05.719Z,9.85
2023-05-21T19:17:09.177Z,11.60
2023-05-21T19:20:12.631Z,13.25
2023-05-21T19:23:16.043Z,10.50
2023-05-21T19:26:19.103Z,12.07
2023-05-21T19:29:22.551Z,12.15
2023-05-21T19:32:25.155Z,10.95
2023-05-21T19:35:28.323Z,13.55
2023-05-21T19:38:31.297Z,9.07
2023-05-21T19:41:34.451Z,7.72
2023-05-21T19:44:37.768Z,8.10
2023-05-21T19:47:40.635Z,10.77
2023-05-21T19:50:43.384Z,9.25
2023-05-21T19:53:45.845Z,10.32
2023-05-21T19:56:49.005Z,11.98
2023-05-21T19:59:51.154Z,9.15
2023-05-21T20:02:53.515Z,10.50
2023-05-21T20:05:56.850Z,12.13
2023-05-21T20:09:00.148Z,15.45
2023-05-21T20:12:03.306Z,10.75
2023-05-21T20:15:06.000Z,7.65
2023-05-21T20:18:09.315Z,8.13
2023-05-21T20:21:12.989Z,9.07
2023-05-21T20:24:16.601Z,7.00
2023-05-21T20:27:19.738Z,8.13
2023-05-21T20:30:22.935Z,9.13
2023-05-21T20:33:26.037Z,6.72
2023-05-21T20:36:29.521Z,5.20
2023-05-21T20:39:32.676Z,5.90
2023-05-21T20:42:36.121Z,4.40
2023-05-21T20:45:38.385Z,5.13
2023-05-21T20:48:41.076Z,6.70
2023-05-21T20:51:43.848Z,5.15
2023-05-21T20:54:47.014Z,5.25
2023-05-21T20:57:49.812Z,4.57
2023-05-21T21:00:52.535Z,3.80
2023-05-21T21:03:55.688Z,5.50
2023-05-21T21:06:58.506Z,7.03
2023-05-21T21:10:00.637Z,5.10
2023-05-21T21:13:03.910Z,4.18
2023-05-21T21:16:07.224Z,4.07
2023-05-21T21:19:10.021Z,4.43
2023-05-21T21:22:13.142Z,4.22
2023-05-21T21:25:15.981Z,4.47
2023-05-21T21:28:18.726Z,5.05
2023-05-21T21:31:21.540Z,3.63
2023-05-21T21:34:24.645Z,5.25
2023-05-21T21:37:27.766Z,3.40
2023-05-21T21:40:31.244Z,3.90
2023-05-21T21:43:33.659Z,5.53
2023-05-21T21:46:37.240Z,3.53
2023-05-21T21:49:40.388Z,4.82
2023-05-21T21:52:44.338Z,3.97
2023-05-21T21:55:48.070Z,3.25
2023-05-21T21:58:51.735Z,4.00
2023-05-21T22:01:55.334Z,3.75
2023-05-21T22:04:58.024Z,4.93
2023-05-21T22:08:00.509Z,4.35
2023-05-21T22:11:03.691Z,3.75
2023-05-21T22:14:06.003Z,2.83
2023-05-21T22:17:08.891Z,3.58
2023-05-21T22:20:11.653Z,3.75
2023-05-21T22:23:14.745Z,4.25
2023-05-21T22:26:18.995Z,3.85
2023-05-21T22:29:22.879Z,3.20
2023-05-21T22:32:25.896Z,2.78
2023-05-21T22:35:29.000Z,4.55
2023-05-21T22:38:31.976Z,3.17
2023-05-21T22:41:34.426Z,3.80
2023-05-21T22:44:37.861Z,3.90
2023-05-21T22:47:41.536Z,3.72
2023-05-21T22:50:44.077Z,3.38
2023-05-21T22:53:46.453Z,3.38
2023-05-21T22:56:49.296Z,4.15
2023-05-21T22:59:51.964Z,4.78
2023-05-21T23:02:55.469Z,4.53
2023-05-21T23:05:58.275Z,3.85
2023-05-21T23:09:01.236Z,5.32
2023-05-21T23:12:04.224Z,3.70
2023-05-21T23:15:08.071Z,3.97
2023-05-21T23:18:11.901Z,4.00
2023-05-21T23:21:15.262Z,3.75
2023-05-21T23:24:18.150Z,3.67
2023-05-21T23:27:21.256Z,4.05
2023-05-21T23:30:24.271Z,4.88
2023-05-21T23:33:27.012Z,3.97
2023-05-21T23:36:29.058Z,4.15
2023-05-21T23:39:32.003Z,3.78
2023-05-21T23:42:35.484Z,4.88
2023-05-21T23:45:38.992Z,3.58
2023-05-21T23:48:41.937Z,4.80
2023-05-21T23:51:45.133Z,4.07
2023-05-21T23:54:48.100Z,4.88
2023-05-21T23:57:50.833Z,3.67
